createdAt,value
2022-09-30T00:01:33.568Z,11.43
2022-09-30T00:04:01.595Z,11.07
2022-09-30T00:06:29.788Z,13.57
2022-09-30T00:08:58.083Z,12.52
2022-09-30T00:11:31.180Z,9.55
2022-09-30T00:13:58.430Z,9.63
2022-09-30T00:16:28.284Z,11.40
2022-09-30T00:18:56.991Z,12.02
2022-09-30T00:21:24.377Z,12.10
2022-09-30T00:23:51.395Z,9.93
2022-09-30T00:26:20.957Z,9.35
2022-09-30T00:28:53.037Z,9.93
2022-09-30T00:31:21.267Z,12.02
2022-09-30T00:34:07.351Z,11.27
2022-09-30T00:36:37.415Z,11.77
2022-09-30T00:39:05.953Z,10.38
2022-09-30T00:41:32.697Z,11.88
2022-09-30T00:43:59.362Z,11.25
2022-09-30T00:46:44.585Z,10.02
2022-09-30T00:49:20.848Z,12.75
2022-09-30T00:51:56.406Z,11.82
2022-09-30T00:54:29.233Z,11.88
2022-09-30T00:56:59.362Z,12.00
2022-09-30T00:59:28.915Z,14.23
2022-09-30T01:01:55.754Z,11.57
2022-09-30T01:04:24.670Z,12.48
2022-09-30T01:06:51.377Z,14.15
2022-09-30T01:09:19.581Z,13.25
2022-09-30T01:11:47.613Z,14.48
2022-09-30T01:14:19.427Z,14.90
2022-09-30T01:17:17.486Z,14.13
2022-09-30T01:20:14.338Z,12.57
2022-09-30T01:23:11.388Z,12.77
2022-09-30T01:26:25.363Z,13.38
2022-09-30T01:29:35.527Z,12.20
2022-09-30T01:32:29.700Z,11.52
2022-09-30T01:35:19.327Z,11.65
2022-09-30T01:38:02.190Z,11.73
2022-09-30T01:40:41.921Z,14.63
2022-09-30T01:43:22.476Z,14.57
2022-09-30T01:46:01.912Z,13.23
2022-09-30T01:48:47.063Z,14.35
2022-09-30T01:51:39.946Z,10.60
2022-09-30T01:57:07.950Z,8.63
2022-09-30T01:59:50.357Z,12.18
2022-09-30T02:02:20.941Z,11.27
2022-09-30T02:04:57.652Z,10.15
2022-09-30T02:07:30.881Z,11.77
2022-09-30T02:10:07.783Z,10.30
2022-09-30T02:12:41.947Z,9.88
2022-09-30T02:15:17.759Z,13.10
2022-09-30T02:17:52.261Z,11.38
2022-09-30T02:20:32.867Z,9.63
2022-09-30T02:23:15.769Z,11.35
2022-09-30T02:25:47.235Z,11.68
2022-09-30T02:28:20.949Z,10.02
2022-09-30T02:30:50.651Z,12.85
2022-09-30T02:33:29.015Z,15.65
2022-09-30T02:36:08.594Z,14.23
2022-09-30T02:38:44.617Z,17.25
2022-09-30T02:41:22.210Z,15.65
2022-09-30T02:43:50.568Z,15.63
2022-09-30T02:46:35.334Z,13.70
2022-09-30T02:49:14.043Z,22.73
2022-09-30T02:52:16.070Z,14.10
2022-09-30T02:55:24.122Z,19.98
2022-09-30T02:58:04.539Z,14.57
2022-09-30T03:00:31.778Z,13.02
2022-09-30T03:03:10.709Z,12.65
2022-09-30T03:05:37.574Z,17.25
2022-09-30T03:08:04.420Z,12.93
2022-09-30T03:10:32.765Z,15.23
2022-09-30T03:13:43.218Z,16.52
2022-09-30T03:17:10.819Z,12.85
2022-09-30T03:19:54.519Z,12.63
2022-09-30T03:22:56.773Z,12.60
2022-09-30T03:26:06.847Z,10.77
2022-09-30T03:28:38.974Z,11.38
2022-09-30T03:31:25.880Z,12.45
2022-09-30T03:34:05.256Z,10.40
2022-09-30T03:36:34.652Z,10.40
2022-09-30T03:39:39.604Z,9.05
2022-09-30T03:42:23.195Z,8.93
2022-09-30T03:45:05.194Z,11.10
2022-09-30T03:47:35.330Z,9.07
2022-09-30T03:50:06.314Z,13.05
2022-09-30T03:52:34.027Z,13.00
2022-09-30T03:55:04.095Z,12.43
2022-09-30T03:57:31.015Z,14.25
2022-09-30T03:59:58.243Z,12.20
2022-09-30T04:02:25.891Z,15.60
2022-09-30T04:04:52.829Z,12.52
2022-09-30T04:07:19.837Z,19.00
2022-09-30T04:09:46.704Z,13.10
2022-09-30T04:12:13.374Z,16.38
2022-09-30T04:14:39.941Z,13.60
2022-09-30T04:17:07.020Z,16.65
2022-09-30T04:19:38.222Z,14.38
2022-09-30T04:22:04.884Z,14.75
2022-09-30T04:24:31.464Z,13.20
2022-09-30T04:26:58.222Z,12.00
2022-09-30T04:29:24.998Z,13.13
2022-09-30T04:31:51.691Z,16.95
2022-09-30T04:34:18.835Z,12.88
2022-09-30T04:36:45.403Z,16.50
2022-09-30T04:39:12.122Z,14.43
2022-09-30T04:41:38.978Z,14.18
2022-09-30T04:44:06.394Z,13.35
2022-09-30T04:46:36.763Z,20.05
2022-09-30T04:49:08.753Z,16.35
2022-09-30T04:51:36.283Z,14.27
2022-09-30T04:54:03.540Z,12.38
2022-09-30T04:56:30.289Z,13.15
2022-09-30T04:58:57.410Z,15.55
2022-09-30T05:01:24.165Z,18.02
2022-09-30T05:03:50.808Z,19.55
2022-09-30T05:06:18.083Z,17.30
2022-09-30T05:08:46.589Z,18.27
2022-09-30T05:11:21.377Z,18.80
2022-09-30T05:13:48.855Z,18.85
2022-09-30T05:16:17.121Z,18.45
2022-09-30T05:18:46.233Z,18.27
2022-09-30T05:21:20.615Z,16.45
2022-09-30T05:23:47.967Z,16.63
2022-09-30T05:26:14.628Z,19.05
2022-09-30T05:28:42.257Z,17.30
2022-09-30T05:31:09.534Z,21.67
2022-09-30T05:33:36.408Z,17.25
2022-09-30T05:36:09.487Z,19.50
2022-09-30T05:38:38.919Z,18.27
2022-09-30T05:41:15.922Z,20.10
2022-09-30T05:43:47.781Z,21.58
2022-09-30T05:46:16.040Z,16.23
2022-09-30T05:48:43.070Z,20.80
2022-09-30T05:51:09.885Z,18.77
2022-09-30T05:53:38.747Z,18.42
2022-09-30T05:56:06.698Z,17.98
2022-09-30T05:58:34.178Z,16.80
2022-09-30T06:01:12.877Z,14.70
2022-09-30T06:03:40.972Z,16.67
2022-09-30T06:06:07.761Z,19.40
2022-09-30T06:08:34.992Z,17.42
2022-09-30T06:11:01.861Z,18.02
2022-09-30T06:13:28.943Z,17.10
2022-09-30T06:15:58.102Z,19.27
2022-09-30T06:18:26.098Z,17.25
2022-09-30T06:20:56.179Z,20.52
2022-09-30T06:23:22.819Z,17.80
2022-09-30T06:25:52.965Z,19.70
2022-09-30T06:28:20.133Z,20.23
2022-09-30T06:30:47.266Z,20.38
2022-09-30T06:33:15.217Z,15.82
2022-09-30T06:35:42.670Z,18.10
2022-09-30T06:38:10.166Z,21.90
2022-09-30T06:40:37.281Z,19.67
2022-09-30T06:43:04.963Z,16.95
2022-09-30T06:45:33.372Z,17.05
2022-09-30T06:48:01.816Z,17.48
2022-09-30T06:50:29.662Z,17.27
2022-09-30T06:53:00.778Z,18.50
2022-09-30T06:55:28.699Z,18.15
2022-09-30T06:57:56.155Z,20.10
2022-09-30T07:00:24.493Z,17.52
2022-09-30T07:02:51.145Z,17.27
2022-09-30T07:05:17.976Z,18.92
2022-09-30T07:07:44.638Z,16.27
2022-09-30T07:10:11.918Z,18.17
2022-09-30T07:12:38.629Z,17.70
2022-09-30T07:15:07.415Z,19.00
2022-09-30T07:17:37.049Z,18.20
2022-09-30T07:20:03.765Z,23.50
2022-09-30T07:22:31.962Z,22.95
2022-09-30T07:25:03.803Z,22.13
2022-09-30T07:27:32.996Z,18.15
2022-09-30T07:32:47.443Z,22.80
2022-09-30T07:35:14.380Z,19.58
2022-09-30T07:37:41.008Z,18.58
2022-09-30T07:40:09.469Z,23.65
2022-09-30T07:42:45.875Z,24.25
2022-09-30T07:45:17.033Z,24.42
2022-09-30T07:47:43.840Z,23.88
2022-09-30T07:50:10.942Z,19.75
2022-09-30T07:52:37.566Z,22.85
2022-09-30T07:55:04.555Z,20.17
2022-09-30T07:57:31.210Z,22.95
2022-09-30T07:59:57.842Z,22.98
2022-09-30T08:02:25.074Z,24.65
2022-09-30T08:04:51.695Z,19.13
2022-09-30T08:07:18.897Z,20.52
2022-09-30T08:09:45.629Z,27.33
2022-09-30T08:12:12.245Z,19.00
2022-09-30T08:14:39.200Z,20.88
2022-09-30T08:17:06.172Z,24.83
2022-09-30T08:19:36.048Z,18.70
2022-09-30T08:24:35.054Z,19.42
2022-09-30T08:27:01.704Z,20.85
2022-09-30T08:32:15.382Z,23.33
2022-09-30T08:34:42.072Z,18.23
2022-09-30T08:37:10.210Z,16.92
2022-09-30T08:39:38.167Z,19.38
2022-09-30T08:42:37.962Z,18.33
2022-09-30T08:45:35.931Z,19.15
2022-09-30T08:48:29.730Z,17.40
2022-09-30T08:51:31.702Z,18.48
2022-09-30T08:54:02.538Z,15.73
2022-09-30T08:56:33.961Z,15.00
2022-09-30T08:59:52.955Z,16.70
2022-09-30T09:02:24.610Z,11.93
2022-09-30T09:04:54.963Z,15.18
2022-09-30T09:07:56.717Z,13.60
2022-09-30T09:10:46.408Z,15.23
2022-09-30T09:13:51.445Z,12.57
2022-09-30T09:16:36.655Z,13.25
2022-09-30T09:19:10.807Z,13.82
2022-09-30T09:22:01.944Z,14.05
2022-09-30T09:24:51.123Z,14.00
2022-09-30T09:27:42.126Z,16.92
2022-09-30T09:30:12.357Z,15.65
2022-09-30T09:32:39.179Z,17.30
2022-09-30T09:35:21.960Z,10.55
2022-09-30T09:38:25.985Z,11.98
2022-09-30T09:41:42.115Z,13.23
2022-09-30T09:44:49.361Z,12.57
2022-09-30T09:47:17.248Z,10.43
2022-09-30T09:49:46.144Z,9.38
2022-09-30T09:52:57.282Z,12.27
2022-09-30T09:55:24.079Z,11.82
2022-09-30T09:58:14.028Z,13.07
2022-09-30T10:01:09.579Z,11.10
2022-09-30T10:03:37.480Z,9.65
2022-09-30T10:06:10.572Z,10.38
2022-09-30T10:08:39.763Z,9.95
2022-09-30T10:11:17.970Z,8.07
2022-09-30T10:13:45.906Z,8.73
2022-09-30T10:16:32.588Z,9.55
2022-09-30T10:19:00.205Z,10.98
2022-09-30T10:21:29.533Z,11.90
2022-09-30T10:23:57.784Z,10.98
2022-09-30T10:29:00.959Z,11.13
2022-09-30T10:31:30.291Z,9.63
2022-09-30T10:34:38.738Z,12.35
2022-09-30T10:37:14.797Z,7.90
2022-09-30T10:39:44.237Z,5.43
2022-09-30T10:42:26.237Z,6.65
2022-09-30T10:45:07.529Z,8.40
2022-09-30T10:47:37.205Z,6.25
2022-09-30T10:50:09.136Z,7.63
2022-09-30T10:52:39.410Z,9.75
2022-09-30T10:55:14.807Z,6.28
2022-09-30T10:57:44.681Z,5.45
2022-09-30T11:00:18.815Z,5.90
2022-09-30T11:03:13.456Z,4.93
2022-09-30T11:05:45.469Z,5.72
2022-09-30T11:08:22.243Z,7.78
2022-09-30T11:10:59.399Z,7.60
2022-09-30T11:14:09.646Z,7.05
2022-09-30T11:17:25.514Z,4.90
2022-09-30T11:20:01.270Z,5.65
2022-09-30T11:22:42.802Z,5.88
2022-09-30T11:25:20.792Z,6.93
2022-09-30T11:28:28.017Z,5.85
2022-09-30T11:31:12.967Z,4.70
2022-09-30T11:34:23.254Z,5.13
2022-09-30T11:37:17.933Z,4.00
2022-09-30T11:40:29.395Z,4.55
2022-09-30T11:43:44.864Z,5.38
2022-09-30T11:47:03.306Z,3.88
2022-09-30T11:52:31.789Z,3.85
2022-09-30T11:55:30.114Z,2.80
2022-09-30T11:58:39.413Z,2.72
2022-09-30T12:01:21.259Z,3.13
2022-09-30T12:04:02.983Z,5.57
2022-09-30T12:06:36.498Z,5.93
2022-09-30T12:09:15.805Z,3.60
2022-09-30T12:11:55.673Z,10.98
2022-09-30T12:14:33.363Z,3.67
2022-09-30T12:17:03.548Z,5.65
2022-09-30T12:19:47.515Z,2.50
2022-09-30T12:22:28.708Z,4.15
2022-09-30T12:24:55.982Z,3.05
2022-09-30T12:27:35.500Z,5.07
2022-09-30T12:30:19.204Z,2.60
2022-09-30T12:33:20.553Z,3.08
2022-09-30T12:36:22.158Z,4.07
2022-09-30T12:39:11.564Z,3.58
2022-09-30T12:42:36.635Z,3.08
2022-09-30T12:45:44.508Z,4.50
2022-09-30T12:48:17.662Z,3.38
2022-09-30T12:50:53.201Z,2.42
2022-09-30T12:53:24.272Z,4.82
2022-09-30T12:55:51.759Z,3.00
2022-09-30T12:58:31.201Z,3.10
2022-09-30T13:01:13.232Z,2.90
2022-09-30T13:04:29.495Z,3.92
2022-09-30T13:07:18.301Z,3.22
2022-09-30T13:10:28.897Z,4.03
2022-09-30T13:13:13.605Z,4.47
2022-09-30T13:15:43.330Z,3.00
2022-09-30T13:21:23.840Z,2.20
2022-09-30T13:23:55.689Z,2.90
2022-09-30T13:27:07.369Z,2.22
2022-09-30T13:29:35.637Z,4.07
2022-09-30T13:32:03.541Z,6.18
2022-09-30T13:34:47.496Z,2.95
2022-09-30T13:37:36.191Z,4.50
2022-09-30T13:40:06.359Z,2.63
2022-09-30T13:42:41.570Z,6.25
2022-09-30T13:45:18.558Z,2.85
2022-09-30T13:47:56.579Z,3.83
2022-09-30T13:50:45.454Z,3.58
2022-09-30T13:53:22.296Z,2.97
2022-09-30T13:55:53.785Z,4.22
2022-09-30T13:59:06.668Z,2.87
2022-09-30T14:02:16.262Z,2.20
2022-09-30T14:05:04.513Z,4.30
2022-09-30T14:07:49.493Z,3.75
2022-09-30T14:10:34.868Z,5.00
2022-09-30T14:13:37.136Z,2.85
2022-09-30T14:17:00.961Z,3.25
2022-09-30T14:19:53.355Z,3.08
2022-09-30T14:22:21.822Z,2.88
2022-09-30T14:24:50.597Z,3.30
2022-09-30T14:27:45.704Z,4.03
2022-09-30T14:30:27.619Z,5.63
2022-09-30T14:32:58.447Z,5.20
2022-09-30T14:35:31.252Z,4.40
2022-09-30T14:38:20.606Z,4.05
2022-09-30T14:40:56.343Z,4.28
2022-09-30T14:43:36.810Z,6.10
2022-09-30T14:46:41.000Z,5.72
2022-09-30T14:49:17.855Z,4.60
2022-09-30T14:51:47.139Z,2.67
2022-09-30T14:54:26.621Z,3.70
2022-09-30T14:56:56.441Z,3.65
2022-09-30T14:59:28.065Z,6.32
2022-09-30T15:02:00.586Z,4.97
2022-09-30T15:04:33.782Z,6.30
2022-09-30T15:07:03.489Z,7.10
2022-09-30T15:09:36.226Z,4.53
2022-09-30T15:12:05.521Z,8.13
2022-09-30T15:14:35.699Z,5.28
2022-09-30T15:17:06.022Z,6.18
2022-09-30T15:19:35.097Z,6.25
2022-09-30T15:22:04.725Z,5.40
2022-09-30T15:24:33.063Z,4.45
2022-09-30T15:27:01.189Z,8.45
2022-09-30T15:29:28.312Z,4.78
2022-09-30T15:32:18.438Z,5.30
2022-09-30T15:34:46.068Z,11.52
2022-09-30T15:37:24.300Z,3.47
2022-09-30T15:40:10.415Z,6.30
2022-09-30T15:42:45.453Z,7.07
2022-09-30T15:45:20.965Z,4.88
2022-09-30T15:48:04.791Z,4.57
2022-09-30T15:50:49.079Z,11.25
2022-09-30T15:53:25.833Z,5.20
2022-09-30T15:55:55.859Z,4.78
2022-09-30T15:58:42.390Z,4.55
2022-09-30T16:01:34.364Z,5.30
2022-09-30T16:04:24.559Z,7.50
2022-09-30T16:06:56.993Z,5.63
2022-09-30T16:12:15.296Z,6.32
2022-09-30T16:15:07.191Z,7.60
2022-09-30T16:17:39.082Z,13.48
2022-09-30T16:20:26.050Z,7.07
2022-09-30T16:22:55.089Z,9.50
2022-09-30T16:25:33.182Z,10.52
2022-09-30T16:28:01.758Z,6.57
2022-09-30T16:30:32.267Z,10.10
2022-09-30T16:33:04.260Z,6.20
2022-09-30T16:35:31.035Z,5.53
2022-09-30T16:38:01.285Z,8.95
2022-09-30T16:40:28.894Z,9.25
2022-09-30T16:42:56.016Z,7.75
2022-09-30T16:45:22.947Z,5.65
2022-09-30T16:47:50.598Z,7.35
2022-09-30T16:50:38.660Z,6.82
2022-09-30T16:53:05.543Z,6.40
2022-09-30T16:55:32.529Z,7.32
2022-09-30T16:57:59.598Z,9.93
2022-09-30T17:00:27.997Z,6.78
2022-09-30T17:02:55.215Z,8.98
2022-09-30T17:05:23.756Z,11.50
2022-09-30T17:08:04.025Z,13.48
2022-09-30T17:10:33.272Z,11.27
2022-09-30T17:13:00.658Z,11.60
2022-09-30T17:15:29.043Z,9.07
2022-09-30T17:17:56.461Z,10.35
2022-09-30T17:20:23.601Z,11.02
2022-09-30T17:22:50.290Z,8.70
2022-09-30T17:25:17.404Z,10.30
2022-09-30T17:27:48.773Z,7.82
2022-09-30T17:30:16.204Z,13.45
2022-09-30T17:32:42.850Z,9.93
2022-09-30T17:35:10.171Z,7.72
2022-09-30T17:37:46.237Z,9.82
2022-09-30T17:40:32.197Z,9.10
2022-09-30T17:43:08.596Z,6.70
2022-09-30T17:45:36.032Z,7.57
2022-09-30T17:48:03.025Z,9.90
2022-09-30T17:50:29.750Z,8.98
2022-09-30T17:52:56.446Z,10.70
2022-09-30T17:55:23.075Z,7.18
2022-09-30T17:57:50.803Z,12.00
2022-09-30T18:00:17.448Z,9.20
2022-09-30T18:02:44.729Z,8.77
2022-09-30T18:05:11.836Z,13.00
2022-09-30T18:07:38.599Z,8.63
2022-09-30T18:10:05.882Z,12.60
2022-09-30T18:12:34.579Z,14.75
2022-09-30T18:15:01.466Z,16.70
2022-09-30T18:17:28.273Z,16.42
2022-09-30T18:19:54.931Z,14.77
2022-09-30T18:22:21.579Z,13.60
2022-09-30T18:25:06.461Z,13.98
2022-09-30T18:27:34.042Z,19.77
2022-09-30T18:30:01.570Z,11.27
2022-09-30T18:32:28.766Z,14.70
2022-09-30T18:34:56.385Z,12.32
2022-09-30T18:37:28.319Z,12.43
2022-09-30T18:39:55.158Z,11.35
2022-09-30T18:42:21.845Z,11.88
2022-09-30T18:44:48.833Z,16.60
2022-09-30T18:47:17.153Z,14.02
2022-09-30T18:49:44.260Z,10.88
2022-09-30T18:52:11.102Z,10.82
2022-09-30T18:54:38.014Z,23.50
2022-09-30T18:57:04.986Z,12.25
2022-09-30T18:59:31.585Z,17.63
2022-09-30T19:01:59.998Z,12.07
2022-09-30T19:04:26.590Z,14.27
2022-09-30T19:06:53.190Z,12.77
2022-09-30T19:09:19.791Z,13.63
2022-09-30T19:11:47.960Z,14.85
2022-09-30T19:14:17.614Z,16.05
2022-09-30T19:16:45.043Z,17.60
2022-09-30T19:19:11.722Z,15.02
2022-09-30T19:21:39.325Z,13.90
2022-09-30T19:24:08.035Z,13.95
2022-09-30T19:26:36.635Z,20.88
2022-09-30T19:29:05.393Z,12.48
2022-09-30T19:31:34.103Z,17.17
2022-09-30T19:34:02.046Z,14.40
2022-09-30T19:36:31.936Z,17.90
2022-09-30T19:39:11.167Z,13.57
2022-09-30T19:41:38.745Z,10.70
2022-09-30T19:44:05.459Z,13.30
2022-09-30T19:46:34.687Z,12.43
2022-09-30T19:49:01.385Z,12.82
2022-09-30T19:51:30.823Z,16.40
2022-09-30T19:54:06.075Z,13.82
2022-09-30T19:56:34.124Z,11.77
2022-09-30T19:59:00.797Z,15.98
2022-09-30T20:01:28.818Z,14.40
2022-09-30T20:03:57.468Z,12.00
2022-09-30T20:06:24.308Z,11.68
2022-09-30T20:08:53.506Z,14.15
2022-09-30T20:11:21.971Z,11.55
2022-09-30T20:14:13.143Z,10.27
2022-09-30T20:16:41.553Z,9.52
2022-09-30T20:19:08.391Z,9.77
2022-09-30T20:21:35.374Z,14.55
2022-09-30T20:24:02.525Z,13.88
2022-09-30T20:26:29.277Z,9.73
2022-09-30T20:28:57.827Z,10.80
2022-09-30T20:31:25.486Z,11.55
2022-09-30T20:33:56.696Z,8.98
2022-09-30T20:36:25.168Z,9.55
2022-09-30T20:39:00.158Z,10.10
2022-09-30T20:41:27.398Z,12.73
2022-09-30T20:43:54.120Z,12.95
2022-09-30T20:46:22.261Z,16.05
2022-09-30T20:48:49.989Z,14.07
2022-09-30T20:51:19.080Z,13.48
2022-09-30T20:53:50.992Z,13.30
2022-09-30T20:56:18.250Z,12.63
2022-09-30T20:58:44.856Z,12.98
2022-09-30T21:01:14.155Z,10.95
2022-09-30T21:03:42.029Z,11.73
2022-09-30T21:06:12.534Z,10.95
2022-09-30T21:08:42.878Z,13.10
2022-09-30T21:11:10.911Z,13.05
2022-09-30T21:13:41.738Z,16.65
2022-09-30T21:16:11.847Z,12.82
2022-09-30T21:18:38.445Z,9.55
2022-09-30T21:21:05.812Z,8.40
2022-09-30T21:23:34.179Z,9.30
2022-09-30T21:26:06.037Z,12.90
2022-09-30T21:28:33.139Z,16.02
2022-09-30T21:31:03.930Z,13.85
2022-09-30T21:33:30.570Z,12.13
2022-09-30T21:36:06.134Z,12.80
2022-09-30T21:38:34.173Z,19.38
2022-09-30T21:41:02.852Z,12.25
2022-09-30T21:43:37.313Z,8.13
2022-09-30T21:46:06.790Z,9.07
2022-09-30T21:48:35.125Z,9.27
2022-09-30T21:51:02.506Z,21.00
2022-09-30T21:53:29.471Z,9.23
2022-09-30T21:55:57.753Z,8.88
2022-09-30T21:58:26.002Z,8.88
2022-09-30T22:00:56.787Z,13.45
2022-09-30T22:03:23.634Z,10.02
2022-09-30T22:05:54.852Z,12.77
2022-09-30T22:08:22.460Z,15.95
2022-09-30T22:10:51.047Z,12.07
2022-09-30T22:13:18.345Z,14.68
2022-09-30T22:15:46.794Z,13.02
2022-09-30T22:18:18.423Z,10.77
2022-09-30T22:20:46.542Z,12.17
2022-09-30T22:23:14.997Z,14.65
2022-09-30T22:25:41.779Z,16.42
2022-09-30T22:28:08.509Z,16.25
2022-09-30T22:30:35.385Z,18.83
2022-09-30T22:33:20.528Z,16.35
2022-09-30T22:36:05.916Z,29.55
2022-09-30T22:38:32.824Z,25.75
2022-09-30T22:40:59.661Z,26.95
2022-09-30T22:43:26.969Z,26.13
2022-09-30T22:46:08.293Z,22.23
2022-09-30T22:48:35.849Z,17.42
2022-09-30T22:51:02.617Z,18.02
2022-09-30T22:53:29.394Z,11.85
2022-09-30T22:55:56.062Z,19.60
2022-09-30T22:58:24.368Z,14.88
2022-09-30T23:00:52.980Z,15.40
2022-09-30T23:03:19.685Z,8.68
2022-09-30T23:05:46.453Z,13.55
2022-09-30T23:08:13.131Z,11.32
2022-09-30T23:10:52.219Z,10.82
2022-09-30T23:13:22.377Z,10.65
2022-09-30T23:15:49.000Z,13.38
2022-09-30T23:18:17.246Z,11.45
2022-09-30T23:20:56.930Z,9.43
2022-09-30T23:23:24.190Z,10.27
2022-09-30T23:26:08.287Z,14.05
2022-09-30T23:28:35.921Z,11.73
2022-09-30T23:31:06.435Z,11.43
2022-09-30T23:33:33.244Z,8.93
2022-09-30T23:36:02.844Z,17.33
2022-09-30T23:38:30.159Z,9.60
2022-09-30T23:41:00.040Z,8.63
2022-09-30T23:43:31.659Z,11.18
2022-09-30T23:45:59.009Z,8.43
2022-09-30T23:48:26.144Z,9.05
2022-09-30T23:50:53.395Z,11.68
2022-09-30T23:53:22.812Z,9.73
2022-09-30T23:55:56.735Z,7.85
2022-09-30T23:58:27.303Z,9.18
